Time;durP1;ratioP1;P1;durP2;ratioP2;P2;SDS_P1;SDS_P2;PMS_P1;PMS_P2;Temp;Humidity;BMP_temperature;BMP_pressure;BME280_temperature;BME280_humidity;BME280_pressure;Samples;Min_cycle;Max_cycle;Signal;HPM_P1;HPM_P2
2022/06/01 00:04:03;;;;;;;7.32;3.22;;;;;;;17.54;56.96;99645.03;7712472;32;37848;-73
2022/06/01 00:08:23;;;;;;;6.37;3.58;;;;;;;17.63;56.35;99638.41;7712515;32;37799;-73
2022/06/01 00:12:39;;;;;;;7.68;4.00;;;;;;;17.34;56.97;99632.69;7711298;32;39869;-73
2022/06/01 00:16:57;;;;;;;9.00;4.10;;;;;;;17.53;56.42;99621.38;7712046;32;40956;-72
2022/06/01 00:21:13;;;;;;;8.75;4.00;;;;;;;17.37;57.58;99632.84;7712092;32;37654;-72
2022/06/01 00:25:29;;;;;;;6.85;3.80;;;;;;;17.31;57.68;99627.81;7711571;32;35743;-73
2022/06/01 00:29:45;;;;;;;6.35;3.65;;;;;;;17.19;57.51;99623.72;7711120;32;40098;-73
2022/06/01 00:34:01;;;;;;;8.90;4.22;;;;;;;17.34;56.30;99614.19;7712037;32;40020;-73
2022/06/01 00:38:17;;;;;;;8.43;4.12;;;;;;;17.11;56.89;99612.69;7711954;32;37848;-73
2022/06/01 00:42:36;;;;;;;9.18;4.30;;;;;;;16.90;57.77;99613.25;7712052;32;37944;-73
2022/06/01 00:46:52;;;;;;;6.55;4.68;;;;;;;16.79;58.65;99617.41;7698443;32;40186;-73
2022/06/01 00:51:11;;;;;;;6.47;4.18;;;;;;;17.05;57.53;99615.56;7711663;32;40798;-73
2022/06/01 00:55:42;;;;;;;7.07;3.92;;;;;;;16.82;59.10;99617.59;7710698;32;38552;-73
2022/06/01 01:00:00;;;;;;;6.35;3.90;;;;;;;16.74;59.36;99621.09;7710349;32;37864;-72
2022/06/01 01:04:16;;;;;;;5.37;3.53;;;;;;;16.78;58.27;99611.09;7710750;32;39324;-72
2022/06/01 01:08:32;;;;;;;6.18;3.90;;;;;;;16.74;58.18;99596.34;7711723;32;40828;-72
2022/06/01 01:13:04;;;;;;;7.32;4.00;;;;;;;16.80;58.70;99591.50;7711561;32;37947;-73
2022/06/01 01:17:21;;;;;;;10.00;4.50;;;;;;;16.73;59.17;99599.41;7711720;32;37161;-72
2022/06/01 01:21:44;;;;;;;9.65;4.75;;;;;;;16.81;58.39;99604.13;7709984;32;39969;-72
2022/06/01 01:26:00;;;;;;;7.55;4.20;;;;;;;16.62;60.02;99598.88;7711623;32;39992;-72
2022/06/01 01:30:47;;;;;;;6.18;4.25;;;;;;;16.53;59.82;99598.84;7710346;32;37805;-72
2022/06/01 01:35:03;;;;;;;9.88;4.78;;;;;;;16.38;60.75;99597.28;7715574;32;37781;-72
2022/06/01 01:39:19;;;;;;;7.53;4.20;;;;;;;16.60;59.30;99601.94;7711031;32;40013;-73
2022/06/01 01:43:41;;;;;;;8.13;4.37;;;;;;;16.49;59.83;99606.09;7710487;32;39914;-73
2022/06/01 01:47:57;;;;;;;7.47;4.47;;;;;;;16.63;59.57;99592.25;7711250;32;37649;-72
2022/06/01 01:52:15;;;;;;;8.05;4.40;;;;;;;16.68;60.29;99578.34;7710993;32;37150;-74
2022/06/01 01:57:01;;;;;;;12.37;4.47;;;;;;;16.63;60.30;99587.56;7711395;32;38267;-72
2022/06/01 02:01:26;;;;;;;8.82;4.62;;;;;;;16.72;60.46;99565.56;7720801;32;40188;-73
2022/06/01 02:06:04;;;;;;;7.25;4.40;;;;;;;16.79;60.44;99565.09;7709728;32;37882;-72
2022/06/01 02:14:56;;;;;;;11.63;4.62;;;;;;;16.62;61.46;99538.31;7711007;32;39861;-72
2022/06/01 02:19:18;;;;;;;8.98;5.03;;;;;;;16.72;61.43;99543.53;7709628;32;39999;-73
2022/06/01 02:23:34;;;;;;;12.60;5.15;;;;;;;16.57;62.28;99538.47;7709438;32;38740;-72
2022/06/01 02:27:51;;;;;;;8.13;4.70;;;;;;;16.71;61.81;99555.66;7710816;32;37249;-73
2022/06/01 02:32:09;;;;;;;9.57;4.30;;;;;;;16.55;62.60;99563.56;7709293;32;40093;-73
2022/06/01 02:36:25;;;;;;;12.07;5.75;;;;;;;16.72;61.99;99568.31;7709301;32;39688;-73
2022/06/01 02:40:42;;;;;;;12.65;6.85;;;;;;;16.47;64.59;99565.16;7708907;32;38721;-73
2022/06/01 02:44:59;;;;;;;13.45;8.23;;;;;;;16.48;65.36;99552.19;7710148;32;37945;-73
2022/06/01 02:49:17;;;;;;;18.73;7.47;;;;;;;16.75;65.16;99542.91;7710135;32;39955;-73
2022/06/01 02:53:33;;;;;;;17.85;10.00;;;;;;;16.66;65.15;99536.56;7709774;32;39931;-73
2022/06/01 02:57:50;;;;;;;17.80;9.60;;;;;;;16.66;65.18;99539.31;7709904;32;38675;-73
2022/06/01 03:02:09;;;;;;;12.98;6.80;;;;;;;16.77;66.10;99559.13;7709921;32;37770;-72
2022/06/01 03:06:25;;;;;;;20.27;7.90;;;;;;;16.07;68.38;99680.56;7709913;32;38446;-74
2022/06/01 03:11:01;;;;;;;15.60;8.02;;;;;;;15.94;70.31;99670.44;7708226;32;41082;-74
2022/06/01 03:15:18;;;;;;;20.48;7.60;;;;;;;16.53;68.75;99637.34;7709531;32;37608;-74
2022/06/01 03:19:35;;;;;;;15.05;7.18;;;;;;;16.58;69.23;99628.97;7709417;32;37138;-74
2022/06/01 03:23:51;;;;;;;14.98;7.68;;;;;;;16.80;68.81;99636.38;7708473;32;39212;-74
2022/06/01 03:28:07;;;;;;;13.25;6.87;;;;;;;16.91;68.75;99638.88;7708221;32;39691;-73
2022/06/01 03:32:23;;;;;;;11.30;6.62;;;;;;;16.42;69.33;99642.31;7708682;32;37694;-74
2022/06/01 03:36:39;;;;;;;14.27;6.90;;;;;;;16.73;68.83;99638.78;7709101;32;37139;-74
2022/06/01 03:40:55;;;;;;;12.70;6.72;;;;;;;16.95;68.20;99648.09;7708839;32;39166;-74
2022/06/01 03:49:46;;;;;;;13.90;7.25;;;;;;;17.11;68.10;99643.81;7708673;32;37948;-74
2022/06/01 03:54:02;;;;;;;11.85;7.03;;;;;;;17.06;68.61;99611.72;7709800;32;37269;-74
2022/06/01 03:58:23;;;;;;;12.50;6.45;;;;;;;17.04;68.84;99610.38;7712580;32;40021;-73
2022/06/01 04:02:40;;;;;;;12.23;7.30;;;;;;;17.06;68.97;99621.91;7712315;32;39895;-73
2022/06/01 04:07:00;;;;;;;12.63;6.68;;;;;;;16.74;69.81;99629.38;7712453;32;37855;-73
2022/06/01 04:11:16;;;;;;;13.55;6.28;;;;;;;17.11;68.66;99616.28;7712194;32;37260;-74
2022/06/01 04:15:32;;;;;;;14.98;6.70;;;;;;;17.31;67.95;99623.09;7712320;32;39420;-74
2022/06/01 04:19:48;;;;;;;13.30;6.28;;;;;;;17.29;68.19;99641.09;7712470;32;40885;-74
2022/06/01 04:24:05;;;;;;;9.98;5.65;;;;;;;17.36;68.21;99638.69;7711950;32;38122;-73
2022/06/01 04:28:21;;;;;;;10.07;5.72;;;;;;;17.33;68.88;99637.38;7712254;32;37859;-73
2022/06/01 04:32:38;;;;;;;11.15;5.85;;;;;;;17.52;68.52;99634.31;7711124;32;40148;-74
2022/06/01 04:36:54;;;;;;;11.98;5.90;;;;;;;17.67;69.08;99627.53;7710951;32;40012;-73
2022/06/01 04:41:10;;;;;;;15.80;6.65;;;;;;;17.81;69.04;99628.19;7712073;32;38477;-73
2022/06/01 04:45:26;;;;;;;10.60;5.97;;;;;;;18.09;68.49;99627.91;7707537;32;141315;-73
2022/06/01 04:49:42;;;;;;;12.05;6.45;;;;;;;18.14;67.78;99626.91;7712286;32;39972;-73
2022/06/01 04:53:58;;;;;;;11.60;6.10;;;;;;;18.13;68.20;99625.31;7711486;32;39895;-72
2022/06/01 04:58:14;;;;;;;11.82;5.78;;;;;;;18.22;67.31;99628.03;7711753;32;38035;-73
2022/06/01 05:02:30;;;;;;;10.00;5.57;;;;;;;18.05;67.58;99631.62;7711563;32;37267;-73
2022/06/01 05:06:46;;;;;;;11.63;5.60;;;;;;;18.05;67.89;99634.38;7711842;32;40444;-73
2022/06/01 05:11:03;;;;;;;13.30;6.55;;;;;;;18.00;68.21;99638.13;7711548;32;39874;-73
2022/06/01 05:15:19;;;;;;;12.73;6.22;;;;;;;18.16;67.50;99646.69;7711466;32;38538;-73
2022/06/01 05:19:35;;;;;;;9.65;5.45;;;;;;;18.34;66.75;99644.75;7711437;32;37200;-74
2022/06/01 05:23:51;;;;;;;10.95;5.90;;;;;;;18.45;66.25;99643.25;7711128;32;40184;-73
2022/06/01 05:28:07;;;;;;;10.10;5.32;;;;;;;18.31;67.26;99659.19;7711531;32;40759;-73
2022/06/01 05:32:23;;;;;;;10.50;5.68;;;;;;;18.37;66.79;99677.22;7711413;32;37819;-73
2022/06/01 05:36:40;;;;;;;13.07;6.30;;;;;;;18.50;66.34;99680.91;7711493;32;37104;-72
2022/06/01 05:40:56;;;;;;;10.30;5.80;;;;;;;18.41;67.26;99685.66;7711058;32;40176;-73
2022/06/01 05:45:12;;;;;;;10.75;6.53;;;;;;;18.29;67.97;99691.81;7711283;32;40597;-79
2022/06/01 05:49:28;;;;;;;9.48;4.65;;;;;;;18.09;67.68;99696.87;7710632;32;37959;-80
2022/06/01 05:53:44;;;;;;;10.50;5.95;;;;;;;18.75;64.15;99696.59;7710484;32;36977;-81
2022/06/01 05:58:00;;;;;;;11.38;5.55;;;;;;;18.99;63.80;99702.72;7711126;32;39295;-81
2022/06/01 06:02:16;;;;;;;12.73;6.72;;;;;;;19.12;64.14;99708.03;7711053;32;39905;-81
2022/06/01 06:06:33;;;;;;;14.48;8.18;;;;;;;19.11;64.16;99714.72;7711054;32;38537;-79
2022/06/01 06:10:49;;;;;;;14.35;8.10;;;;;;;18.45;65.77;99720.53;7710625;32;37728;-79
2022/06/01 06:15:06;;;;;;;18.58;9.65;;;;;;;18.49;66.29;99727.03;7708968;32;40007;-74
2022/06/01 06:19:22;;;;;;;19.00;10.18;;;;;;;18.34;67.48;99731.09;7710843;32;40103;-74
2022/06/01 06:23:38;;;;;;;15.30;9.35;;;;;;;18.15;68.17;99725.91;7710498;32;37821;-74
2022/06/01 06:27:54;;;;;;;18.83;9.70;;;;;;;18.30;68.35;99726.53;7710637;32;38109;-74
2022/06/01 06:32:10;;;;;;;16.75;9.80;;;;;;;18.35;68.45;99726.37;7709518;32;40050;-83
2022/06/01 06:36:26;;;;;;;15.10;9.57;;;;;;;18.20;69.08;99725.75;7709795;32;40790;-82
2022/06/01 06:40:42;;;;;;;14.50;9.65;;;;;;;18.53;68.01;99721.66;7710419;32;38596;-74
2022/06/01 06:44:58;;;;;;;16.55;8.88;;;;;;;18.82;68.69;99729.28;7710383;32;37149;-73
2022/06/01 06:49:14;;;;;;;14.45;8.77;;;;;;;19.22;67.02;99737.28;7710217;32;39335;-73
2022/06/01 06:53:30;;;;;;;16.25;8.52;;;;;;;19.09;66.96;99739.12;7709717;32;41259;-74
2022/06/01 06:57:46;;;;;;;14.68;8.57;;;;;;;19.16;66.48;99748.84;7709944;32;37824;-74
2022/06/01 07:02:03;;;;;;;17.52;9.38;;;;;;;19.10;66.71;99740.72;7710039;32;37085;-74
2022/06/01 07:06:19;;;;;;;13.90;8.15;;;;;;;18.92;66.87;99739.16;7709229;32;39289;-75
2022/06/01 07:10:35;;;;;;;14.27;7.87;;;;;;;19.41;66.41;99738.81;7708751;32;39997;-77
2022/06/01 07:14:51;;;;;;;17.70;9.07;;;;;;;19.19;65.36;99742.66;7709171;32;38641;-75
2022/06/01 07:19:08;;;;;;;21.58;8.77;;;;;;;19.40;66.02;99749.06;7709280;32;35522;-75
2022/06/01 07:23:25;;;;;;;14.98;8.30;;;;;;;19.45;66.33;99757.16;7709291;32;39406;-75
2022/06/01 07:27:42;;;;;;;15.40;9.63;;;;;;;19.65;65.65;99755.59;7710534;32;39868;-75
2022/06/01 07:32:00;;;;;;;12.55;8.00;;;;;;;20.11;65.64;99764.16;7712422;32;38183;-76
2022/06/01 07:36:17;;;;;;;15.20;8.60;;;;;;;20.44;61.74;99760.66;7712793;32;37249;-75
2022/06/01 07:45:08;;;;;;;16.02;8.63;;;;;;;20.36;60.72;99773.41;7711215;32;40087;-74
2022/06/01 07:49:25;;;;;;;16.67;8.68;;;;;;;19.98;61.77;99785.38;7711839;32;37994;-75
2022/06/01 07:54:02;;;;;;;12.85;7.90;;;;;;;20.19;62.88;99779.06;7711648;32;37583;-76
2022/06/01 07:58:18;;;;;;;13.07;7.97;;;;;;;20.50;61.52;99781.44;7711898;32;39670;-75
2022/06/01 08:02:34;;;;;;;12.23;7.35;;;;;;;20.85;60.04;99774.78;7712217;32;39927;-76
2022/06/01 08:06:50;;;;;;;16.37;8.02;;;;;;;21.07;60.18;99774.38;7711546;32;37952;-76
2022/06/01 08:11:11;;;;;;;11.98;7.60;;;;;;;21.21;61.78;99782.38;7712499;32;37910;-75
2022/06/01 08:15:28;;;;;;;12.93;6.53;;;;;;;21.86;60.07;99776.22;7710555;32;39276;-78
2022/06/01 08:19:46;;;;;;;14.02;7.28;;;;;;;22.31;57.73;99775.25;7712321;32;40779;-79
2022/06/01 08:24:04;;;;;;;9.98;6.50;;;;;;;20.82;58.51;99795.69;7709588;32;38134;-77
2022/06/01 08:28:20;;;;;;;9.20;5.45;;;;;;;21.26;59.14;99798.78;7708524;32;37098;-82
2022/06/01 08:32:36;;;;;;;12.90;6.65;;;;;;;21.34;58.67;99795.13;7708658;32;40054;-76
2022/06/01 08:36:53;;;;;;;11.55;5.87;;;;;;;21.34;59.86;99788.78;7709825;32;41357;-76
2022/06/01 08:41:12;;;;;;;10.70;5.60;;;;;;;21.61;59.88;99792.06;7710447;32;38549;-76
2022/06/01 08:45:30;;;;;;;9.90;5.60;;;;;;;21.48;59.28;99797.59;7711893;32;37205;-76
2022/06/01 08:49:52;;;;;;;12.32;5.03;;;;;;;21.57;59.07;99791.94;7710661;32;39325;-76
2022/06/01 08:54:08;;;;;;;9.77;4.03;;;;;;;21.64;59.97;99806.03;7712001;32;40109;-76
2022/06/01 08:58:50;;;;;;;7.47;3.83;;;;;;;22.09;58.48;99807.06;7711100;32;37874;-76
2022/06/01 09:03:20;;;;;;;8.00;4.12;;;;;;;22.58;57.39;99807.00;7711841;32;37085;-78
2022/06/01 09:07:52;;;;;;;5.95;3.87;;;;;;;22.77;53.47;99809.13;7711864;32;39293;-75
2022/06/01 09:12:09;;;;;;;5.85;3.08;;;;;;;23.34;55.58;99809.09;7711789;32;40151;-75
2022/06/01 09:16:38;;;;;;;5.47;3.00;;;;;;;23.52;53.99;99810.34;7711169;32;38653;-74
2022/06/01 09:25:32;;;;;;;10.07;3.58;;;;;;;23.76;50.16;99805.75;7710929;32;40018;-72
2022/06/01 09:29:50;;;;;;;4.60;3.15;;;;;;;23.54;49.50;99807.19;7710375;32;40823;-74
2022/06/01 09:34:31;;;;;;;2.95;2.40;;;;;;;24.21;50.28;99807.22;7711048;32;36810;-74
2022/06/01 09:38:52;;;;;;;4.15;2.60;;;;;;;24.36;47.94;99802.78;7711481;32;37047;-74
2022/06/01 09:43:20;;;;;;;5.28;3.00;;;;;;;24.71;46.26;99805.53;7710522;32;40043;-74
2022/06/01 09:47:42;;;;;;;3.37;2.60;;;;;;;23.86;48.53;99810.81;7708497;32;39548;-74
2022/06/01 09:52:10;;;;;;;6.03;3.08;;;;;;;23.55;49.71;99812.41;7709908;32;37989;-74
2022/06/01 09:56:32;;;;;;;6.00;2.97;;;;;;;23.32;49.20;99814.19;7710777;32;37777;-73
2022/06/01 10:10:19;;;;;;;4.62;2.80;;;;;;;24.25;49.36;99813.69;7705386;32;37780;-74
2022/06/01 10:14:40;;;;;;;6.25;2.78;;;;;;;25.03;44.12;99808.16;7709391;32;37039;-75
2022/06/01 10:18:58;;;;;;;4.37;2.58;;;;;;;24.58;45.28;99800.47;7709503;32;40063;-85
2022/06/01 10:23:32;;;;;;;5.55;2.70;;;;;;;24.60;43.54;99807.31;7709750;32;39984;-75
2022/06/01 10:28:12;;;;;;;7.43;2.65;;;;;;;24.78;46.32;99801.28;7710137;32;38960;-74
2022/06/01 10:32:56;;;;;;;4.20;2.42;;;;;;;24.97;42.45;99801.25;7710468;32;38357;-75
2022/06/01 10:37:32;;;;;;;3.53;2.22;;;;;;;25.60;41.68;99802.03;7709749;32;39419;-73
2022/06/01 10:42:02;;;;;;;9.63;2.42;;;;;;;25.38;43.24;99804.44;7709298;32;40716;-74
2022/06/01 10:46:33;;;;;;;2.40;1.92;;;;;;;25.59;41.98;99800.41;7708764;32;37898;-74
2022/06/01 10:51:15;;;;;;;2.75;1.60;;;;;;;25.74;40.01;99807.84;7708211;32;37338;-75
2022/06/01 10:55:40;;;;;;;2.50;1.80;;;;;;;26.41;39.21;99812.03;7709013;32;40152;-82
2022/06/01 10:59:56;;;;;;;3.35;1.90;;;;;;;26.10;39.19;99813.22;7710092;32;41168;-75
2022/06/01 11:04:32;;;;;;;4.55;2.12;;;;;;;26.16;39.00;99808.88;7711257;32;37867;-75
2022/06/01 11:08:58;;;;;;;3.00;1.62;;;;;;;26.29;39.45;99804.69;7708839;32;36587;-75
2022/06/01 11:13:26;;;;;;;7.37;1.87;;;;;;;26.39;37.42;99809.63;7708658;32;39323;-72
2022/06/01 11:17:46;;;;;;;2.50;1.52;;;;;;;26.55;36.72;99805.84;7710566;32;40367;-73
2022/06/01 11:22:12;;;;;;;3.05;1.52;;;;;;;26.18;38.45;99810.13;7712437;32;38359;-73
2022/06/01 11:26:54;;;;;;;4.05;1.48;;;;;;;27.14;38.42;99806.94;7713048;32;37070;-73
2022/06/01 11:31:27;;;;;;;3.92;1.55;;;;;;;27.02;36.53;99803.59;7712838;32;40248;-74
2022/06/01 11:35:58;;;;;;;2.28;1.50;;;;;;;26.37;37.32;99811.16;7711543;32;40889;-74
2022/06/01 11:40:42;;;;;;;4.20;1.55;;;;;;;26.52;36.66;99810.16;7685026;32;37674;-74
2022/06/01 11:45:13;;;;;;;2.17;1.55;;;;;;;26.82;35.34;99812.19;7685959;32;37141;-74
2022/06/01 11:49:37;;;;;;;3.40;1.50;;;;;;;26.56;34.81;99808.25;7695169;32;39497;-73
2022/06/01 11:54:08;;;;;;;3.53;1.60;;;;;;;27.28;34.75;99802.69;7711463;32;40868;-72
2022/06/01 11:58:30;;;;;;;7.25;1.70;;;;;;;27.07;34.71;99792.06;7712454;32;38414;-73
2022/06/01 12:02:50;;;;;;;2.37;1.40;;;;;;;27.25;34.56;99792.25;7711609;32;36993;-73
2022/06/01 12:07:32;;;;;;;4.90;1.85;;;;;;;27.02;34.22;99796.00;7711774;32;40161;-74
2022/06/01 12:11:49;;;;;;;4.22;1.67;;;;;;;26.21;35.99;99798.19;7710668;32;40395;-74
2022/06/01 12:16:24;;;;;;;1.65;1.30;;;;;;;26.68;36.18;99795.22;7698946;32;37985;-73
2022/06/01 12:20:40;;;;;;;1.67;1.30;;;;;;;27.58;34.70;99794.19;7710275;32;37192;-74
2022/06/01 12:29:37;;;;;;;4.97;1.65;;;;;;;28.00;32.19;99798.50;7711653;32;40055;-74
2022/06/01 12:34:10;;;;;;;2.00;1.25;;;;;;;28.17;30.89;99796.22;7711340;32;38604;-75
2022/06/01 12:38:34;;;;;;;2.80;1.20;;;;;;;28.26;30.43;99799.47;7711795;32;35919;-74
2022/06/01 12:42:56;;;;;;;2.65;1.12;;;;;;;28.24;30.51;99797.06;7711432;32;39915;-74
2022/06/01 12:47:27;;;;;;;1.75;0.88;;;;;;;28.13;32.11;99795.37;7710175;32;40754;-73
2022/06/01 12:51:43;;;;;;;1.73;1.10;;;;;;;28.37;30.26;99791.94;7695196;32;37851;-75
2022/06/01 12:56:10;;;;;;;3.45;1.40;;;;;;;28.76;30.31;99785.69;7711266;32;37734;-74
2022/06/01 13:00:32;;;;;;;1.85;1.27;;;;;;;29.19;28.53;99791.44;7711030;32;39443;-73
2022/06/01 13:04:53;;;;;;;2.47;1.20;;;;;;;28.61;30.01;99789.66;7711284;32;40797;-73
2022/06/01 13:09:12;;;;;;;1.45;1.15;;;;;;;28.58;30.08;99790.44;7711701;32;36945;-74
2022/06/01 13:13:30;;;;;;;2.03;1.42;;;;;;;28.46;29.81;99767.13;7711488;32;37051;-74
2022/06/01 13:17:49;;;;;;;2.58;1.30;;;;;;;28.89;29.97;99774.09;7711148;32;39256;-73
2022/06/01 13:22:38;;;;;;;5.32;1.40;;;;;;;29.35;28.33;99770.59;7711479;32;40840;-74
2022/06/01 13:26:56;;;;;;;1.55;1.20;;;;;;;28.98;31.19;99763.31;7708961;32;37886;-74
2022/06/01 13:31:12;;;;;;;1.95;0.90;;;;;;;29.74;27.50;99752.94;7710400;32;37152;-74
2022/06/01 13:35:34;;;;;;;3.00;1.10;;;;;;;30.21;28.61;99753.66;7710956;32;39245;-74
2022/06/01 13:40:00;;;;;;;1.92;1.17;;;;;;;30.33;24.96;99747.56;7711119;32;39980;-73
2022/06/01 13:44:54;;;;;;;1.50;1.12;;;;;;;30.03;25.74;99747.28;7710847;32;38674;-74
2022/06/01 13:49:15;;;;;;;1.10;1.00;;;;;;;29.89;26.74;99746.12;7710754;32;37904;-74
2022/06/01 13:53:41;;;;;;;2.37;1.00;;;;;;;30.19;26.03;99747.66;7711537;32;39057;-75
2022/06/01 13:58:20;;;;;;;1.25;0.90;;;;;;;29.98;24.97;99742.06;7710690;32;40070;-74
2022/06/01 14:02:51;;;;;;;1.50;0.98;;;;;;;29.56;24.49;99741.72;7711212;32;38645;-73
2022/06/01 14:07:14;;;;;;;1.45;1.10;;;;;;;30.07;25.87;99722.78;7710069;32;37022;-74
2022/06/01 14:11:31;;;;;;;;;;;;;;;31.22;24.72;99719.41;7709023;32;40098;-74
2022/06/01 14:15:49;;;;;;;3.47;1.27;;;;;;;30.27;23.77;99731.53;7710643;32;40329;-75
2022/06/01 14:20:05;;;;;;;2.17;1.00;;;;;;;30.79;23.91;99723.28;7709701;32;38061;-73
2022/06/01 14:24:22;;;;;;;1.27;1.00;;;;;;;30.20;22.72;99726.78;7710173;32;36999;-74
2022/06/01 14:28:41;;;;;;;3.35;1.25;;;;;;;29.66;24.53;99726.84;7709957;32;40055;-74
2022/06/01 14:32:57;;;;;;;1.10;1.00;;;;;;;29.45;22.69;99732.50;7710577;32;39955;-73
2022/06/01 14:37:12;;;;;;;1.58;1.20;;;;;;;29.61;23.06;99729.28;7709704;32;37958;-74
2022/06/01 14:41:41;;;;;;;1.25;0.90;;;;;;;29.70;23.53;99724.88;7709891;32;37157;-74
2022/06/01 14:45:57;;;;;;;3.25;1.20;;;;;;;30.04;22.95;99717.97;7710167;32;39320;-74
2022/06/01 14:50:14;;;;;;;1.33;1.12;;;;;;;30.19;23.35;99721.56;7709630;32;40898;-73
2022/06/01 14:54:36;;;;;;;2.22;1.00;;;;;;;30.11;21.65;99712.31;7709884;32;37951;-75
2022/06/01 14:58:52;;;;;;;3.57;1.13;;;;;;;29.77;23.65;99708.03;7708421;32;37150;-73
2022/06/01 15:03:09;;;;;;;6.47;1.30;;;;;;;29.33;24.09;99709.22;7709222;32;39301;-73
2022/06/01 15:07:26;;;;;;;1.30;1.10;;;;;;;29.90;24.21;99708.38;7708519;32;40013;-74
2022/06/01 15:11:42;;;;;;;5.15;2.90;;;;;;;29.72;24.28;99708.41;7701198;32;37913;-73
2022/06/01 15:15:58;;;;;;;2.83;1.90;;;;;;;29.67;22.71;99694.75;7693934;32;37321;-73
2022/06/01 15:20:15;;;;;;;4.78;1.48;;;;;;;29.43;23.99;99693.59;7698646;32;39019;-74
2022/06/01 15:24:31;;;;;;;2.08;1.35;;;;;;;29.74;23.69;99696.75;7709097;32;40521;-73
2022/06/01 15:28:47;;;;;;;4.32;1.70;;;;;;;29.29;24.03;99702.84;7709005;32;38365;-73
2022/06/01 15:42:14;;;;;;;1.87;1.17;;;;;;;28.79;26.87;99702.78;7707118;32;40766;-73
2022/06/01 15:46:36;;;;;;;6.25;2.80;;;;;;;28.93;26.11;99702.00;7707155;32;37995;-73
2022/06/01 15:50:55;;;;;;;2.22;1.23;;;;;;;29.18;25.33;99705.66;7707977;32;37155;-73
2022/06/01 15:55:11;;;;;;;2.17;1.20;;;;;;;29.54;22.15;99697.19;7708542;32;39942;-72
2022/06/01 15:59:27;;;;;;;1.80;1.25;;;;;;;29.54;22.62;99699.19;7708809;32;39741;-72
2022/06/01 16:03:50;;;;;;;7.80;1.60;;;;;;;29.32;22.50;99695.59;7706437;32;37794;-71
2022/06/01 16:08:26;;;;;;;3.85;1.50;;;;;;;29.34;23.65;99704.44;7710348;32;37346;-72
2022/06/01 16:12:42;;;;;;;1.95;1.50;;;;;;;29.42;23.76;99700.41;7711809;32;39304;-72
2022/06/01 16:16:58;;;;;;;1.80;1.50;;;;;;;29.50;24.16;99702.00;7711544;32;40789;-72
2022/06/01 16:21:18;;;;;;;1.33;1.00;;;;;;;29.32;25.58;99689.97;7712113;32;38445;-73
2022/06/01 16:25:34;;;;;;;2.30;1.30;;;;;;;29.02;25.33;99694.75;7710641;32;37723;-73
2022/06/01 16:29:51;;;;;;;2.83;1.35;;;;;;;28.57;25.59;99699.91;7712281;32;39526;-72
2022/06/01 16:34:08;;;;;;;4.97;2.33;;;;;;;28.81;28.25;99706.75;7711360;32;39738;-72
2022/06/01 16:38:24;;;;;;;5.87;2.67;;;;;;;28.66;28.86;99713.53;7710815;32;37916;-73
2022/06/01 16:42:40;;;;;;;3.83;2.00;;;;;;;28.51;28.49;99712.69;7710013;32;38228;-73
2022/06/01 16:46:56;;;;;;;1.77;1.00;;;;;;;28.53;27.67;99717.88;7709135;32;39246;-72
2022/06/01 16:51:12;;;;;;;2.62;1.23;;;;;;;28.68;27.98;99711.13;7711171;32;40904;-73
2022/06/01 16:55:28;;;;;;;5.90;1.52;;;;;;;28.83;26.81;99711.97;7710805;32;37446;-73
2022/06/01 16:59:45;;;;;;;4.57;1.70;;;;;;;28.76;27.21;99711.97;7709093;32;37017;-73
2022/06/01 17:04:01;;;;;;;5.68;2.55;;;;;;;28.77;27.71;99703.16;7711555;32;39308;-74
2022/06/01 17:08:19;;;;;;;3.78;1.67;;;;;;;28.99;25.71;99700.38;7708788;32;40725;-72
2022/06/01 17:12:37;;;;;;;2.28;1.40;;;;;;;29.01;24.52;99686.75;7708498;32;37557;-72
2022/06/01 17:16:53;;;;;;;6.32;3.42;;;;;;;28.84;25.22;99697.56;7707823;32;37606;-71
2022/06/01 17:21:10;;;;;;;7.85;4.32;;;;;;;28.72;24.52;99697.94;7709270;32;38985;-73
2022/06/01 17:25:27;;;;;;;6.72;3.50;;;;;;;28.71;24.21;99695.53;7709422;32;39957;-72
2022/06/01 17:29:44;;;;;;;4.97;3.00;;;;;;;28.44;26.00;99693.00;7711566;32;37778;-73
2022/06/01 17:34:01;;;;;;;2.72;1.40;;;;;;;28.41;25.01;99694.63;7709456;32;37922;-73
2022/06/01 17:38:18;;;;;;;4.62;1.30;;;;;;;28.33;26.17;99698.59;7709947;32;37508;-72
2022/06/01 17:42:34;;;;;;;3.08;1.40;;;;;;;27.92;26.74;99707.22;7710717;32;39530;-72
2022/06/01 17:46:50;;;;;;;3.50;1.27;;;;;;;27.59;32.62;99703.37;7711086;32;37887;-72
2022/06/01 17:51:06;;;;;;;5.22;1.30;;;;;;;27.10;34.41;99704.59;7710170;32;37094;-73
2022/06/01 17:55:23;;;;;;;5.15;1.40;;;;;;;27.05;34.39;99699.34;7710634;32;39452;-73
2022/06/01 17:59:39;;;;;;;3.05;1.23;;;;;;;26.74;35.64;99704.22;7709860;32;39671;-73
2022/06/01 18:03:55;;;;;;;2.03;1.30;;;;;;;26.54;36.34;99704.37;7710688;32;37807;-73
2022/06/01 18:08:15;;;;;;;3.55;1.50;;;;;;;26.29;37.17;99708.91;7709584;32;37080;-72
2022/06/01 18:12:31;;;;;;;3.42;1.17;;;;;;;26.18;38.37;99709.56;7707737;32;39868;-73
2022/06/01 18:16:47;;;;;;;2.15;1.30;;;;;;;25.87;39.00;99710.69;7709884;32;39988;-75
2022/06/01 18:21:04;;;;;;;3.30;1.50;;;;;;;25.62;40.94;99711.13;7708696;32;37889;-74
2022/06/01 18:25:20;;;;;;;2.80;1.20;;;;;;;25.29;41.40;99718.19;7709882;32;37143;-74
2022/06/01 18:29:37;;;;;;;2.17;1.60;;;;;;;24.96;40.56;99716.00;7709157;32;39329;-73
2022/06/01 18:33:54;;;;;;;2.72;1.25;;;;;;;24.72;42.35;99714.38;7704346;32;39532;-74
2022/06/01 18:38:12;;;;;;;2.83;1.33;;;;;;;24.67;42.63;99706.31;7703448;32;38779;-73
2022/06/01 18:42:28;;;;;;;2.60;1.75;;;;;;;24.47;43.64;99719.41;7706243;32;36975;-73
2022/06/01 18:46:45;;;;;;;4.75;2.10;;;;;;;24.02;45.16;99721.69;7708054;32;39128;-74
2022/06/01 18:51:02;;;;;;;3.22;1.98;;;;;;;24.09;44.88;99721.03;7709782;32;40621;-73
2022/06/01 18:55:18;;;;;;;3.97;2.10;;;;;;;23.64;46.29;99731.53;7709852;32;37945;-75
2022/06/01 19:04:14;;;;;;;3.60;1.92;;;;;;;23.18;45.44;99734.81;7709073;32;39261;-74
2022/06/01 19:08:31;;;;;;;3.95;1.65;;;;;;;22.97;45.56;99729.44;7709413;32;39860;-74
2022/06/01 19:12:46;;;;;;;3.47;1.60;;;;;;;22.97;46.02;99740.56;7708854;32;38989;-74
2022/06/01 19:17:03;;;;;;;1.75;1.33;;;;;;;23.01;45.23;99744.25;7709447;32;37751;-74
2022/06/01 19:21:20;;;;;;;6.50;3.10;;;;;;;22.63;46.26;99742.84;7708183;32;40042;-75
2022/06/01 19:25:39;;;;;;;6.45;2.40;;;;;;;22.55;47.18;99748.56;7711793;32;40752;-73
2022/06/01 19:29:55;;;;;;;2.67;2.20;;;;;;;22.44;47.84;99749.06;7710565;32;37891;-71
2022/06/01 19:34:11;;;;;;;3.40;1.67;;;;;;;22.38;48.06;99758.78;7711656;32;37085;-72
2022/06/01 19:47:37;;;;;;;3.28;1.60;;;;;;;22.02;47.18;99746.56;7709258;32;37984;-74
2022/06/01 19:51:53;;;;;;;7.93;1.70;;;;;;;22.00;45.97;99756.44;7711811;32;36841;-75
2022/06/01 19:56:09;;;;;;;2.85;1.37;;;;;;;21.84;45.82;99756.34;7709740;32;39200;-75
2022/06/01 20:00:27;;;;;;;13.27;5.78;;;;;;;21.58;46.93;99749.19;7711254;32;39873;-74
2022/06/01 20:04:43;;;;;;;4.18;2.53;;;;;;;21.43;46.96;99747.88;7711328;32;38825;-75
2022/06/01 20:08:59;;;;;;;3.20;1.52;;;;;;;21.50;46.29;99747.31;7711760;32;37678;-74
2022/06/01 20:13:16;;;;;;;2.72;1.30;;;;;;;21.35;46.58;99752.38;7712118;32;39005;-75
2022/06/01 20:17:32;;;;;;;1.30;1.20;;;;;;;21.10;48.34;99751.53;7712173;32;39912;-74
2022/06/01 20:21:49;;;;;;;3.12;1.70;;;;;;;21.00;48.47;99750.00;7711646;32;37534;-74
2022/06/01 20:26:05;;;;;;;5.70;1.52;;;;;;;21.22;48.39;99744.41;7711637;32;36747;-75
2022/06/01 20:30:21;;;;;;;4.53;1.58;;;;;;;20.87;48.90;99740.06;7711156;32;39146;-74
2022/06/01 20:34:37;;;;;;;2.78;1.40;;;;;;;20.55;49.46;99748.00;7710474;32;40703;-74
2022/06/01 20:38:55;;;;;;;4.15;1.90;;;;;;;20.47;49.35;99756.38;7711163;32;37842;-74
2022/06/01 20:43:11;;;;;;;3.72;2.05;;;;;;;20.43;47.76;99756.25;7709255;32;37633;-74
2022/06/01 20:47:29;;;;;;;3.50;1.83;;;;;;;20.38;47.65;99765.56;7710550;32;39928;-74
2022/06/01 20:51:45;;;;;;;2.95;1.62;;;;;;;20.43;48.37;99761.78;7711167;32;39843;-73
2022/06/01 20:56:02;;;;;;;4.15;1.67;;;;;;;20.31;48.49;99765.28;7710302;32;37752;-74
2022/06/01 21:00:27;;;;;;;2.85;1.80;;;;;;;20.37;48.55;99768.66;7710546;32;38354;-74
2022/06/01 21:04:43;;;;;;;3.47;1.83;;;;;;;20.23;48.19;99782.78;7708967;32;39272;-74
2022/06/01 21:09:00;;;;;;;2.42;1.60;;;;;;;19.80;49.54;99779.16;7710957;32;39912;-74
2022/06/01 21:13:16;;;;;;;3.25;1.55;;;;;;;20.02;49.31;99780.81;7711340;32;37822;-72
2022/06/01 21:17:33;;;;;;;7.40;1.85;;;;;;;20.02;49.21;99780.00;7711433;32;37004;-72